sensor_id;sensor_type;location;lat;lon;timestamp;temperature;humidity
9293;DHT22;69930;48.232;12.384;2024-02-23T00:01:55;10.30;99.90
9293;DHT22;69930;48.232;12.384;2024-02-23T00:04:23;10.20;99.90
9293;DHT22;69930;48.232;12.384;2024-02-23T00:06:52;10.20;99.90
9293;DHT22;69930;48.232;12.384;2024-02-23T00:09:19;10.10;99.90
9293;DHT22;69930;48.232;12.384;2024-02-23T00:11:47;10.10;99.90
9293;DHT22;69930;48.232;12.384;2024-02-23T00:14:15;10.10;99.90
9293;DHT22;69930;48.232;12.384;2024-02-23T00:16:44;10.00;99.90
9293;DHT22;69930;48.232;12.384;2024-02-23T00:19:11;10.00;99.90
9293;DHT22;69930;48.232;12.384;2024-02-23T00:21:40;10.00;99.90
9293;DHT22;69930;48.232;12.384;2024-02-23T00:24:08;9.90;99.90
9293;DHT22;69930;48.232;12.384;2024-02-23T00:26:35;9.90;99.90
9293;DHT22;69930;48.232;12.384;2024-02-23T00:29:02;9.90;99.90
9293;DHT22;69930;48.232;12.384;2024-02-23T00:31:29;9.80;99.90
9293;DHT22;69930;48.232;12.384;2024-02-23T00:33:57;9.80;99.90
9293;DHT22;69930;48.232;12.384;2024-02-23T00:36:24;9.70;99.90
9293;DHT22;69930;48.232;12.384;2024-02-23T00:38:53;9.70;99.90
9293;DHT22;69930;48.232;12.384;2024-02-23T00:41:20;9.60;99.90
9293;DHT22;69930;48.232;12.384;2024-02-23T00:43:47;9.60;99.90
9293;DHT22;69930;48.232;12.384;2024-02-23T00:46:14;9.60;99.90
9293;DHT22;69930;48.232;12.384;2024-02-23T00:48:41;9.60;99.90
9293;DHT22;69930;48.232;12.384;2024-02-23T00:51:09;9.50;99.90
9293;DHT22;69930;48.232;12.384;2024-02-23T00:53:36;9.50;99.90
9293;DHT22;69930;48.232;12.384;2024-02-23T02:07:40;9.20;99.90
9293;DHT22;69930;48.232;12.384;2024-02-23T02:10:09;9.20;99.90
9293;DHT22;69930;48.232;12.384;2024-02-23T02:12:39;9.20;99.90
9293;DHT22;69930;48.232;12.384;2024-02-23T02:15:07;9.20;99.90
9293;DHT22;69930;48.232;12.384;2024-02-23T02:17:34;9.20;99.90
9293;DHT22;69930;48.232;12.384;2024-02-23T02:20:02;9.20;99.90
9293;DHT22;69930;48.232;12.384;2024-02-23T02:22:32;9.20;99.90
9293;DHT22;69930;48.232;12.384;2024-02-23T02:25:01;9.20;99.90
9293;DHT22;69930;48.232;12.384;2024-02-23T02:27:30;9.20;99.90
9293;DHT22;69930;48.232;12.384;2024-02-23T02:29:58;9.20;99.90
9293;DHT22;69930;48.232;12.384;2024-02-23T02:32:25;9.20;99.90
9293;DHT22;69930;48.232;12.384;2024-02-23T02:34:52;9.20;99.90
9293;DHT22;69930;48.232;12.384;2024-02-23T02:37:19;9.10;99.90
9293;DHT22;69930;48.232;12.384;2024-02-23T02:39:46;9.10;99.90
9293;DHT22;69930;48.232;12.384;2024-02-23T02:42:15;9.10;99.90
9293;DHT22;69930;48.232;12.384;2024-02-23T02:44:42;9.10;99.90
9293;DHT22;69930;48.232;12.384;2024-02-23T02:47:09;9.10;99.90
9293;DHT22;69930;48.232;12.384;2024-02-23T02:49:36;9.10;99.90
9293;DHT22;69930;48.232;12.384;2024-02-23T02:52:03;9.10;99.90
9293;DHT22;69930;48.232;12.384;2024-02-23T02:54:30;9.10;99.90
9293;DHT22;69930;48.232;12.384;2024-02-23T02:56:57;9.10;99.90
9293;DHT22;69930;48.232;12.384;2024-02-23T02:59:26;9.10;99.90
9293;DHT22;69930;48.232;12.384;2024-02-23T03:01:53;9.10;99.90
9293;DHT22;69930;48.232;12.384;2024-02-23T03:04:20;9.10;99.90
9293;DHT22;69930;48.232;12.384;2024-02-23T03:06:48;9.00;99.90
9293;DHT22;69930;48.232;12.384;2024-02-23T03:09:15;9.00;99.90
9293;DHT22;69930;48.232;12.384;2024-02-23T03:11:42;9.00;99.90
9293;DHT22;69930;48.232;12.384;2024-02-23T03:14:09;9.10;99.90
9293;DHT22;69930;48.232;12.384;2024-02-23T03:16:39;9.10;99.90
9293;DHT22;69930;48.232;12.384;2024-02-23T03:19:07;9.10;99.90
9293;DHT22;69930;48.232;12.384;2024-02-23T03:21:34;9.10;99.90
9293;DHT22;69930;48.232;12.384;2024-02-23T03:24:01;9.10;99.90
9293;DHT22;69930;48.232;12.384;2024-02-23T03:26:28;9.10;99.90
9293;DHT22;69930;48.232;12.384;2024-02-23T03:28:56;9.10;99.90
9293;DHT22;69930;48.232;12.384;2024-02-23T03:31:23;9.10;99.90
9293;DHT22;69930;48.232;12.384;2024-02-23T03:33:52;9.00;99.90
9293;DHT22;69930;48.232;12.384;2024-02-23T03:36:20;9.00;99.90
9293;DHT22;69930;48.232;12.384;2024-02-23T03:38:47;9.00;99.90
9293;DHT22;69930;48.232;12.384;2024-02-23T03:41:14;8.90;99.90
9293;DHT22;69930;48.232;12.384;2024-02-23T03:43:41;8.90;99.90
9293;DHT22;69930;48.232;12.384;2024-02-23T03:46:09;8.90;99.90
9293;DHT22;69930;48.232;12.384;2024-02-23T03:48:37;8.90;99.90
9293;DHT22;69930;48.232;12.384;2024-02-23T03:51:06;8.90;99.90
9293;DHT22;69930;48.232;12.384;2024-02-23T03:53:35;8.90;99.90
9293;DHT22;69930;48.232;12.384;2024-02-23T03:56:03;8.90;99.90
9293;DHT22;69930;48.232;12.384;2024-02-23T03:58:30;8.90;99.90
9293;DHT22;69930;48.232;12.384;2024-02-23T04:00:57;8.90;99.90
9293;DHT22;69930;48.232;12.384;2024-02-23T04:03:24;8.90;99.90
9293;DHT22;69930;48.232;12.384;2024-02-23T04:05:52;8.90;99.90
9293;DHT22;69930;48.232;12.384;2024-02-23T04:08:20;8.90;99.90
9293;DHT22;69930;48.232;12.384;2024-02-23T04:10:47;8.90;99.90
9293;DHT22;69930;48.232;12.384;2024-02-23T04:13:14;8.90;99.90
9293;DHT22;69930;48.232;12.384;2024-02-23T04:15:44;8.90;99.90
9293;DHT22;69930;48.232;12.384;2024-02-23T04:18:11;8.90;99.90
9293;DHT22;69930;48.232;12.384;2024-02-23T04:20:38;8.90;99.90
9293;DHT22;69930;48.232;12.384;2024-02-23T04:23:05;8.90;99.90
9293;DHT22;69930;48.232;12.384;2024-02-23T04:25:34;8.90;99.90
9293;DHT22;69930;48.232;12.384;2024-02-23T04:28:01;8.90;99.90
9293;DHT22;69930;48.232;12.384;2024-02-23T04:30:28;8.90;99.90
9293;DHT22;69930;48.232;12.384;2024-02-23T04:32:55;8.80;99.90
9293;DHT22;69930;48.232;12.384;2024-02-23T04:35:22;8.80;99.90
9293;DHT22;69930;48.232;12.384;2024-02-23T04:37:52;8.80;99.90
9293;DHT22;69930;48.232;12.384;2024-02-23T04:40:19;8.70;99.90
9293;DHT22;69930;48.232;12.384;2024-02-23T04:42:47;8.60;99.90
9293;DHT22;69930;48.232;12.384;2024-02-23T04:45:14;8.60;99.90
9293;DHT22;69930;48.232;12.384;2024-02-23T04:47:41;8.60;99.90
9293;DHT22;69930;48.232;12.384;2024-02-23T04:50:09;8.50;99.90
9293;DHT22;69930;48.232;12.384;2024-02-23T04:52:36;8.50;99.90
9293;DHT22;69930;48.232;12.384;2024-02-23T04:55:03;8.50;99.90
9293;DHT22;69930;48.232;12.384;2024-02-23T04:57:31;8.50;99.90
9293;DHT22;69930;48.232;12.384;2024-02-23T05:00:00;8.50;99.90
9293;DHT22;69930;48.232;12.384;2024-02-23T05:02:29;8.50;99.90
9293;DHT22;69930;48.232;12.384;2024-02-23T05:05:01;8.50;99.90
9293;DHT22;69930;48.232;12.384;2024-02-23T05:07:30;8.40;99.90
9293;DHT22;69930;48.232;12.384;2024-02-23T05:09:57;8.50;99.90
9293;DHT22;69930;48.232;12.384;2024-02-23T05:12:24;8.50;99.90
9293;DHT22;69930;48.232;12.384;2024-02-23T05:14:52;8.50;99.90
9293;DHT22;69930;48.232;12.384;2024-02-23T05:17:20;8.50;99.90
9293;DHT22;69930;48.232;12.384;2024-02-23T05:19:47;8.50;99.90
9293;DHT22;69930;48.232;12.384;2024-02-23T05:22:14;8.50;99.90
9293;DHT22;69930;48.232;12.384;2024-02-23T05:24:41;8.50;99.90
9293;DHT22;69930;48.232;12.384;2024-02-23T05:27:10;8.40;99.90
9293;DHT22;69930;48.232;12.384;2024-02-23T05:29:37;8.40;99.90
9293;DHT22;69930;48.232;12.384;2024-02-23T05:32:04;8.50;99.90
9293;DHT22;69930;48.232;12.384;2024-02-23T05:55:46;8.20;99.90
9293;DHT22;69930;48.232;12.384;2024-02-23T09:49:40;7.70;99.90
9293;DHT22;69930;48.232;12.384;2024-02-23T10:00:58;7.60;99.90
9293;DHT22;69930;48.232;12.384;2024-02-23T10:03:28;7.60;99.90
9293;DHT22;69930;48.232;12.384;2024-02-23T10:09:15;7.70;99.90
9293;DHT22;69930;48.232;12.384;2024-02-23T10:11:52;7.70;99.90
9293;DHT22;69930;48.232;12.384;2024-02-23T10:14:22;7.80;99.90
9293;DHT22;69930;48.232;12.384;2024-02-23T10:17:06;7.90;99.90
9293;DHT22;69930;48.232;12.384;2024-02-23T10:19:35;7.90;99.90
9293;DHT22;69930;48.232;12.384;2024-02-23T10:22:04;8.00;99.90
9293;DHT22;69930;48.232;12.384;2024-02-23T10:30:49;8.10;99.90
9293;DHT22;69930;48.232;12.384;2024-02-23T10:33:22;8.10;99.90
9293;DHT22;69930;48.232;12.384;2024-02-23T10:35:55;8.10;99.90
9293;DHT22;69930;48.232;12.384;2024-02-23T10:38:24;8.10;99.90
9293;DHT22;69930;48.232;12.384;2024-02-23T10:40:55;8.10;99.90
9293;DHT22;69930;48.232;12.384;2024-02-23T10:43:30;8.20;99.90
9293;DHT22;69930;48.232;12.384;2024-02-23T10:46:00;8.10;99.90
9293;DHT22;69930;48.232;12.384;2024-02-23T10:48:43;8.10;99.90
9293;DHT22;69930;48.232;12.384;2024-02-23T10:51:12;8.10;99.90
9293;DHT22;69930;48.232;12.384;2024-02-23T10:53:41;8.00;99.90
9293;DHT22;69930;48.232;12.384;2024-02-23T10:56:08;7.90;99.90
9293;DHT22;69930;48.232;12.384;2024-02-23T10:58:37;7.90;99.90
9293;DHT22;69930;48.232;12.384;2024-02-23T11:01:21;7.80;99.90
9293;DHT22;69930;48.232;12.384;2024-02-23T11:04:04;7.80;99.90
9293;DHT22;69930;48.232;12.384;2024-02-23T11:06:34;7.70;99.90
9293;DHT22;69930;48.232;12.384;2024-02-23T11:09:15;7.70;99.90
9293;DHT22;69930;48.232;12.384;2024-02-23T11:11:54;7.70;99.90
9293;DHT22;69930;48.232;12.384;2024-02-23T11:14:31;7.70;99.90
9293;DHT22;69930;48.232;12.384;2024-02-23T11:17:07;7.70;99.90
9293;DHT22;69930;48.232;12.384;2024-02-23T11:19:46;7.60;99.90
9293;DHT22;69930;48.232;12.384;2024-02-23T11:22:24;7.60;99.90
9293;DHT22;69930;48.232;12.384;2024-02-23T11:25:04;7.60;99.90
9293;DHT22;69930;48.232;12.384;2024-02-23T11:27:32;7.60;99.90
9293;DHT22;69930;48.232;12.384;2024-02-23T11:30:02;7.60;99.90
9293;DHT22;69930;48.232;12.384;2024-02-23T11:32:37;7.60;99.90
9293;DHT22;69930;48.232;12.384;2024-02-23T11:35:06;7.50;99.90
9293;DHT22;69930;48.232;12.384;2024-02-23T11:37:45;7.50;99.90
9293;DHT22;69930;48.232;12.384;2024-02-23T11:40:13;7.60;99.90
9293;DHT22;69930;48.232;12.384;2024-02-23T11:42:41;7.50;99.90
9293;DHT22;69930;48.232;12.384;2024-02-23T11:45:09;7.50;99.90
9293;DHT22;69930;48.232;12.384;2024-02-23T11:50:34;7.60;99.90
9293;DHT22;69930;48.232;12.384;2024-02-23T11:53:02;7.60;99.90
9293;DHT22;69930;48.232;12.384;2024-02-23T11:55:30;7.60;99.90
9293;DHT22;69930;48.232;12.384;2024-02-23T11:57:57;7.60;99.90
9293;DHT22;69930;48.232;12.384;2024-02-23T12:00:25;7.50;99.90
9293;DHT22;69930;48.232;12.384;2024-02-23T12:02:52;7.50;99.90
9293;DHT22;69930;48.232;12.384;2024-02-23T12:05:19;7.50;99.90
9293;DHT22;69930;48.232;12.384;2024-02-23T12:07:47;7.50;99.90
9293;DHT22;69930;48.232;12.384;2024-02-23T12:10:15;7.40;99.90
9293;DHT22;69930;48.232;12.384;2024-02-23T12:12:42;7.40;99.90
9293;DHT22;69930;48.232;12.384;2024-02-23T12:15:09;7.40;99.90
9293;DHT22;69930;48.232;12.384;2024-02-23T12:17:36;7.40;99.90
9293;DHT22;69930;48.232;12.384;2024-02-23T12:20:05;7.40;99.90
9293;DHT22;69930;48.232;12.384;2024-02-23T12:22:34;7.40;99.90
9293;DHT22;69930;48.232;12.384;2024-02-23T12:25:03;7.40;99.90
9293;DHT22;69930;48.232;12.384;2024-02-23T12:27:30;7.30;99.90
9293;DHT22;69930;48.232;12.384;2024-02-23T12:29:57;7.30;99.90
9293;DHT22;69930;48.232;12.384;2024-02-23T12:32:25;7.20;99.90
9293;DHT22;69930;48.232;12.384;2024-02-23T12:34:52;7.20;99.90
9293;DHT22;69930;48.232;12.384;2024-02-23T12:37:20;7.20;99.90
9293;DHT22;69930;48.232;12.384;2024-02-23T12:39:48;7.20;99.90
9293;DHT22;69930;48.232;12.384;2024-02-23T12:42:17;7.20;99.90
9293;DHT22;69930;48.232;12.384;2024-02-23T12:44:44;7.10;99.90
9293;DHT22;69930;48.232;12.384;2024-02-23T12:47:13;6.90;99.90
9293;DHT22;69930;48.232;12.384;2024-02-23T12:49:40;6.90;99.90
9293;DHT22;69930;48.232;12.384;2024-02-23T12:52:07;6.90;99.90
9293;DHT22;69930;48.232;12.384;2024-02-23T12:54:34;6.90;99.90
9293;DHT22;69930;48.232;12.384;2024-02-23T12:57:01;6.90;99.90
9293;DHT22;69930;48.232;12.384;2024-02-23T12:59:30;6.80;99.90
9293;DHT22;69930;48.232;12.384;2024-02-23T13:01:57;6.90;99.90
9293;DHT22;69930;48.232;12.384;2024-02-23T13:04:24;6.80;99.90
9293;DHT22;69930;48.232;12.384;2024-02-23T13:06:51;6.80;99.90
9293;DHT22;69930;48.232;12.384;2024-02-23T13:09:19;6.80;99.90
9293;DHT22;69930;48.232;12.384;2024-02-23T13:11:46;6.80;99.90
9293;DHT22;69930;48.232;12.384;2024-02-23T13:14:14;6.80;99.90
9293;DHT22;69930;48.232;12.384;2024-02-23T13:16:43;6.80;99.90
9293;DHT22;69930;48.232;12.384;2024-02-23T13:19:10;6.80;99.90
9293;DHT22;69930;48.232;12.384;2024-02-23T13:21:37;6.70;99.90
9293;DHT22;69930;48.232;12.384;2024-02-23T13:24:05;6.70;99.90
9293;DHT22;69930;48.232;12.384;2024-02-23T13:26:32;6.70;99.90
9293;DHT22;69930;48.232;12.384;2024-02-23T13:28:59;6.80;99.90
9293;DHT22;69930;48.232;12.384;2024-02-23T13:31:26;6.90;99.90
9293;DHT22;69930;48.232;12.384;2024-02-23T13:33:55;6.90;99.90
9293;DHT22;69930;48.232;12.384;2024-02-23T13:36:22;6.90;99.90
9293;DHT22;69930;48.232;12.384;2024-02-23T13:38:49;6.90;99.90
9293;DHT22;69930;48.232;12.384;2024-02-23T13:41:17;6.90;99.90
9293;DHT22;69930;48.232;12.384;2024-02-23T13:43:44;6.90;99.90
9293;DHT22;69930;48.232;12.384;2024-02-23T13:46:11;6.90;99.90
9293;DHT22;69930;48.232;12.384;2024-02-23T13:48:38;6.90;99.90
9293;DHT22;69930;48.232;12.384;2024-02-23T13:51:06;6.80;99.90
9293;DHT22;69930;48.232;12.384;2024-02-23T13:53:34;6.80;99.90
9293;DHT22;69930;48.232;12.384;2024-02-23T13:56:03;6.70;99.90
9293;DHT22;69930;48.232;12.384;2024-02-23T13:58:30;6.60;99.90
9293;DHT22;69930;48.232;12.384;2024-02-23T14:00:58;6.60;99.90
9293;DHT22;69930;48.232;12.384;2024-02-23T14:03:25;6.60;99.90
9293;DHT22;69930;48.232;12.384;2024-02-23T14:05:52;6.60;99.90
9293;DHT22;69930;48.232;12.384;2024-02-23T14:08:21;6.50;99.90
9293;DHT22;69930;48.232;12.384;2024-02-23T14:10:48;6.50;99.90
9293;DHT22;69930;48.232;12.384;2024-02-23T14:13:15;6.50;99.90
9293;DHT22;69930;48.232;12.384;2024-02-23T14:15:42;6.40;99.90
9293;DHT22;69930;48.232;12.384;2024-02-23T14:18:10;6.50;99.90
9293;DHT22;69930;48.232;12.384;2024-02-23T14:20:37;6.50;99.90
9293;DHT22;69930;48.232;12.384;2024-02-23T14:23:06;6.50;99.90
9293;DHT22;69930;48.232;12.384;2024-02-23T14:25:34;6.50;99.90
9293;DHT22;69930;48.232;12.384;2024-02-23T14:28:01;6.50;99.90
9293;DHT22;69930;48.232;12.384;2024-02-23T14:30:28;6.50;99.90
9293;DHT22;69930;48.232;12.384;2024-02-23T14:32:55;6.40;99.90
9293;DHT22;69930;48.232;12.384;2024-02-23T14:35:23;6.30;99.90
9293;DHT22;69930;48.232;12.384;2024-02-23T14:37:50;6.40;99.90
9293;DHT22;69930;48.232;12.384;2024-02-23T14:40:17;6.30;99.90
9293;DHT22;69930;48.232;12.384;2024-02-23T14:42:45;6.20;99.90
9293;DHT22;69930;48.232;12.384;2024-02-23T14:45:12;6.20;99.90
9293;DHT22;69930;48.232;12.384;2024-02-23T14:47:42;6.30;99.90
9293;DHT22;69930;48.232;12.384;2024-02-23T14:50:10;6.20;99.90
9293;DHT22;69930;48.232;12.384;2024-02-23T14:52:37;6.10;99.90
9293;DHT22;69930;48.232;12.384;2024-02-23T16:06:49;5.40;99.90
9293;DHT22;69930;48.232;12.384;2024-02-23T16:09:16;5.40;99.90
9293;DHT22;69930;48.232;12.384;2024-02-23T16:11:45;5.40;99.90
9293;DHT22;69930;48.232;12.384;2024-02-23T16:14:15;5.40;99.90
9293;DHT22;69930;48.232;12.384;2024-02-23T16:16:42;5.40;99.90
9293;DHT22;69930;48.232;12.384;2024-02-23T16:19:12;5.50;99.90
9293;DHT22;69930;48.232;12.384;2024-02-23T16:21:40;5.50;99.90
9293;DHT22;69930;48.232;12.384;2024-02-23T16:24:10;5.50;99.90
9293;DHT22;69930;48.232;12.384;2024-02-23T16:26:38;5.50;99.90
9293;DHT22;69930;48.232;12.384;2024-02-23T16:29:05;5.40;99.90
9293;DHT22;69930;48.232;12.384;2024-02-23T16:31:34;5.40;99.90
9293;DHT22;69930;48.232;12.384;2024-02-23T16:34:02;5.40;99.90
9293;DHT22;69930;48.232;12.384;2024-02-23T16:36:30;5.40;99.90
9293;DHT22;69930;48.232;12.384;2024-02-23T16:38:57;5.50;99.90
9293;DHT22;69930;48.232;12.384;2024-02-23T16:41:25;5.50;99.90
9293;DHT22;69930;48.232;12.384;2024-02-23T16:43:52;5.60;99.90
9293;DHT22;69930;48.232;12.384;2024-02-23T16:46:21;5.60;99.90
9293;DHT22;69930;48.232;12.384;2024-02-23T16:48:48;5.50;99.90
9293;DHT22;69930;48.232;12.384;2024-02-23T16:51:15;5.50;99.90
9293;DHT22;69930;48.232;12.384;2024-02-23T16:53:42;5.40;99.90
9293;DHT22;69930;48.232;12.384;2024-02-23T16:56:09;5.40;99.90
9293;DHT22;69930;48.232;12.384;2024-02-23T16:58:38;5.40;99.90
9293;DHT22;69930;48.232;12.384;2024-02-23T17:01:06;5.40;99.90
9293;DHT22;69930;48.232;12.384;2024-02-23T17:03:33;5.40;99.90
9293;DHT22;69930;48.232;12.384;2024-02-23T17:06:01;5.40;99.90
9293;DHT22;69930;48.232;12.384;2024-02-23T17:08:30;5.40;99.90
9293;DHT22;69930;48.232;12.384;2024-02-23T17:10:57;5.30;99.90
9293;DHT22;69930;48.232;12.384;2024-02-23T17:13:24;5.30;99.90
9293;DHT22;69930;48.232;12.384;2024-02-23T17:15:53;5.30;99.90
9293;DHT22;69930;48.232;12.384;2024-02-23T17:18:20;5.20;99.90
9293;DHT22;69930;48.232;12.384;2024-02-23T17:20:48;5.20;99.90
9293;DHT22;69930;48.232;12.384;2024-02-23T17:23:15;5.20;99.90
9293;DHT22;69930;48.232;12.384;2024-02-23T17:25:43;5.20;99.90
9293;DHT22;69930;48.232;12.384;2024-02-23T17:28:10;5.30;99.90
9293;DHT22;69930;48.232;12.384;2024-02-23T17:30:39;5.30;99.90
9293;DHT22;69930;48.232;12.384;2024-02-23T17:33:08;5.30;99.90
9293;DHT22;69930;48.232;12.384;2024-02-23T17:35:37;5.30;99.90
9293;DHT22;69930;48.232;12.384;2024-02-23T17:38:05;5.30;99.90
9293;DHT22;69930;48.232;12.384;2024-02-23T17:40:32;5.40;99.90
9293;DHT22;69930;48.232;12.384;2024-02-23T17:43:00;5.40;99.90
9293;DHT22;69930;48.232;12.384;2024-02-23T17:45:31;5.40;99.90
9293;DHT22;69930;48.232;12.384;2024-02-23T17:47:58;5.40;99.90
9293;DHT22;69930;48.232;12.384;2024-02-23T17:50:26;5.40;99.90
9293;DHT22;69930;48.232;12.384;2024-02-23T17:52:56;5.40;99.90
9293;DHT22;69930;48.232;12.384;2024-02-23T17:55:23;5.40;99.90
9293;DHT22;69930;48.232;12.384;2024-02-23T17:57:50;5.40;99.90
9293;DHT22;69930;48.232;12.384;2024-02-23T18:00:18;5.40;99.90
9293;DHT22;69930;48.232;12.384;2024-02-23T18:02:46;5.40;99.90
9293;DHT22;69930;48.232;12.384;2024-02-23T18:05:13;5.30;99.90
9293;DHT22;69930;48.232;12.384;2024-02-23T18:07:42;5.30;99.90
9293;DHT22;69930;48.232;12.384;2024-02-23T18:10:09;5.20;99.90
9293;DHT22;69930;48.232;12.384;2024-02-23T18:18:21;5.10;99.90
9293;DHT22;69930;48.232;12.384;2024-02-23T18:20:49;5.10;99.90
9293;DHT22;69930;48.232;12.384;2024-02-23T18:23:18;5.10;99.90
9293;DHT22;69930;48.232;12.384;2024-02-23T18:31:44;5.00;99.90
9293;DHT22;69930;48.232;12.384;2024-02-23T19:35:35;4.80;99.90
9293;DHT22;69930;48.232;12.384;2024-02-23T19:38:02;4.90;99.90
9293;DHT22;69930;48.232;12.384;2024-02-23T19:40:30;4.90;99.90
9293;DHT22;69930;48.232;12.384;2024-02-23T19:42:57;5.00;99.90
9293;DHT22;69930;48.232;12.384;2024-02-23T19:45:25;5.00;99.90
9293;DHT22;69930;48.232;12.384;2024-02-23T19:47:52;5.10;99.90
9293;DHT22;69930;48.232;12.384;2024-02-23T19:50:18;5.20;99.90
9293;DHT22;69930;48.232;12.384;2024-02-23T19:52:46;5.20;99.90
9293;DHT22;69930;48.232;12.384;2024-02-23T19:55:14;5.20;99.90
9293;DHT22;69930;48.232;12.384;2024-02-23T19:57:41;5.20;99.90
9293;DHT22;69930;48.232;12.384;2024-02-23T20:00:09;5.20;99.90
9293;DHT22;69930;48.232;12.384;2024-02-23T20:02:36;5.20;99.90
9293;DHT22;69930;48.232;12.384;2024-02-23T20:08:02;5.30;99.90
9293;DHT22;69930;48.232;12.384;2024-02-23T20:10:30;5.30;99.90
9293;DHT22;69930;48.232;12.384;2024-02-23T20:12:58;5.30;99.90
9293;DHT22;69930;48.232;12.384;2024-02-23T20:15:25;5.30;99.90
9293;DHT22;69930;48.232;12.384;2024-02-23T20:17:52;5.30;99.90
9293;DHT22;69930;48.232;12.384;2024-02-23T20:20:20;5.30;99.90
9293;DHT22;69930;48.232;12.384;2024-02-23T20:22:48;5.40;99.90
9293;DHT22;69930;48.232;12.384;2024-02-23T20:25:16;5.40;99.90
9293;DHT22;69930;48.232;12.384;2024-02-23T20:27:44;5.50;99.90
9293;DHT22;69930;48.232;12.384;2024-02-23T20:30:12;5.50;99.90
9293;DHT22;69930;48.232;12.384;2024-02-23T20:32:39;5.50;99.90
9293;DHT22;69930;48.232;12.384;2024-02-23T20:35:07;5.40;99.90
9293;DHT22;69930;48.232;12.384;2024-02-23T20:37:35;5.30;99.90
9293;DHT22;69930;48.232;12.384;2024-02-23T20:40:05;5.30;99.90
9293;DHT22;69930;48.232;12.384;2024-02-23T20:42:35;5.30;99.90
9293;DHT22;69930;48.232;12.384;2024-02-23T22:08:41;5.20;99.90
9293;DHT22;69930;48.232;12.384;2024-02-23T22:11:08;5.10;99.90
9293;DHT22;69930;48.232;12.384;2024-02-23T22:13:36;5.10;99.90
9293;DHT22;69930;48.232;12.384;2024-02-23T22:16:08;5.00;99.90
9293;DHT22;69930;48.232;12.384;2024-02-23T22:18:36;4.90;99.90
9293;DHT22;69930;48.232;12.384;2024-02-23T22:21:03;4.90;99.90
9293;DHT22;69930;48.232;12.384;2024-02-23T22:23:30;4.90;99.90
9293;DHT22;69930;48.232;12.384;2024-02-23T22:25:59;4.90;99.90
9293;DHT22;69930;48.232;12.384;2024-02-23T22:28:26;4.80;99.90
9293;DHT22;69930;48.232;12.384;2024-02-23T22:30:53;4.80;99.90
9293;DHT22;69930;48.232;12.384;2024-02-23T22:33:20;4.80;99.90
9293;DHT22;69930;48.232;12.384;2024-02-23T22:35:48;4.90;99.90
9293;DHT22;69930;48.232;12.384;2024-02-23T22:38:15;5.00;99.90
9293;DHT22;69930;48.232;12.384;2024-02-23T22:40:42;5.10;99.90
9293;DHT22;69930;48.232;12.384;2024-02-23T22:43:10;5.10;99.90
9293;DHT22;69930;48.232;12.384;2024-02-23T22:45:37;5.10;99.90
9293;DHT22;69930;48.232;12.384;2024-02-23T22:48:05;5.10;99.90
9293;DHT22;69930;48.232;12.384;2024-02-23T22:50:33;5.20;99.90
9293;DHT22;69930;48.232;12.384;2024-02-23T22:53:00;5.20;99.90
9293;DHT22;69930;48.232;12.384;2024-02-23T22:55:28;5.20;99.90
9293;DHT22;69930;48.232;12.384;2024-02-23T22:57:55;5.20;99.90
9293;DHT22;69930;48.232;12.384;2024-02-23T23:00:23;5.20;99.90
9293;DHT22;69930;48.232;12.384;2024-02-23T23:02:51;5.20;99.90
9293;DHT22;69930;48.232;12.384;2024-02-23T23:05:18;5.10;99.90
9293;DHT22;69930;48.232;12.384;2024-02-23T23:07:46;5.10;99.90
9293;DHT22;69930;48.232;12.384;2024-02-23T23:10:13;5.10;99.90
9293;DHT22;69930;48.232;12.384;2024-02-23T23:12:41;5.00;99.90
9293;DHT22;69930;48.232;12.384;2024-02-23T23:17:58;5.00;99.90
9293;DHT22;69930;48.232;12.384;2024-02-23T23:20:25;4.90;99.90
9293;DHT22;69930;48.232;12.384;2024-02-23T23:22:55;4.80;99.90
9293;DHT22;69930;48.232;12.384;2024-02-23T23:25:22;4.90;99.90
9293;DHT22;69930;48.232;12.384;2024-02-23T23:27:49;4.90;99.90
9293;DHT22;69930;48.232;12.384;2024-02-23T23:30:18;4.90;99.90
9293;DHT22;69930;48.232;12.384;2024-02-23T23:32:45;4.80;99.90
9293;DHT22;69930;48.232;12.384;2024-02-23T23:35:13;4.80;99.90
9293;DHT22;69930;48.232;12.384;2024-02-23T23:37:41;4.80;99.90
9293;DHT22;69930;48.232;12.384;2024-02-23T23:40:09;4.80;99.90
9293;DHT22;69930;48.232;12.384;2024-02-23T23:42:36;4.80;99.90
9293;DHT22;69930;48.232;12.384;2024-02-23T23:45:05;4.80;99.90
9293;DHT22;69930;48.232;12.384;2024-02-23T23:47:32;4.90;99.90
9293;DHT22;69930;48.232;12.384;2024-02-23T23:50:00;4.80;99.90
9293;DHT22;69930;48.232;12.384;2024-02-23T23:52:28;4.80;99.90
9293;DHT22;69930;48.232;12.384;2024-02-23T23:54:55;4.90;99.90
9293;DHT22;69930;48.232;12.384;2024-02-23T23:57:22;4.90;99.90
9293;DHT22;69930;48.232;12.384;2024-02-23T23:59:49;5.00;99.90
